createdAt,value
2018-12-23T00:00:11.283Z,23.90
2018-12-23T00:02:41.123Z,26.67
2018-12-23T00:05:11.569Z,26.97
2018-12-23T00:07:39.424Z,21.17
2018-12-23T00:10:07.251Z,22.57
2018-12-23T00:12:34.802Z,21.97
2018-12-23T00:15:02.465Z,26.47
2018-12-23T00:17:30.236Z,29.97
2018-12-23T00:19:57.846Z,21.60
2018-12-23T00:22:25.622Z,21.97
2018-12-23T00:24:53.224Z,17.60
2018-12-23T00:27:20.683Z,19.80
2018-12-23T00:29:48.194Z,25.63
2018-12-23T00:32:15.784Z,19.33
2018-12-23T00:34:43.235Z,24.57
2018-12-23T00:37:10.702Z,21.70
2018-12-23T00:39:38.321Z,22.53
2018-12-23T00:42:06.109Z,25.07
2018-12-23T00:44:33.902Z,22.73
2018-12-23T00:47:01.644Z,21.03
2018-12-23T00:49:29.175Z,19.83
2018-12-23T00:51:56.709Z,25.37
2018-12-23T00:54:24.346Z,20.97
2018-12-23T00:56:51.833Z,22.43
2018-12-23T00:59:19.334Z,21.30
2018-12-23T01:01:46.882Z,21.40
2018-12-23T01:04:14.461Z,23.87
2018-12-23T01:06:42.057Z,19.27
2018-12-23T01:09:09.825Z,17.83
2018-12-23T01:11:37.384Z,16.77
2018-12-23T01:14:04.873Z,24.53
2018-12-23T01:16:32.384Z,17.07
2018-12-23T01:18:59.939Z,19.33
2018-12-23T01:21:27.451Z,18.43
2018-12-23T01:23:55.392Z,26.57
2018-12-23T01:26:22.930Z,20.83
2018-12-23T01:28:50.448Z,22.30
2018-12-23T01:31:17.970Z,22.17
2018-12-23T01:33:45.454Z,23.13
2018-12-23T01:36:13.109Z,19.70
2018-12-23T01:38:40.786Z,26.40
2018-12-23T01:41:08.429Z,24.23
2018-12-23T01:43:35.977Z,19.83
2018-12-23T01:46:03.567Z,22.93
2018-12-23T01:48:31.068Z,19.10
2018-12-23T01:50:58.571Z,18.40
2018-12-23T01:53:26.441Z,18.33
2018-12-23T01:55:55.770Z,22.67
2018-12-23T01:58:23.341Z,23.03
2018-12-23T02:00:50.862Z,24.57
2018-12-23T02:03:18.470Z,25.43
2018-12-23T02:05:46.378Z,22.17
2018-12-23T02:08:14.622Z,21.90
2018-12-23T02:10:42.317Z,17.97
2018-12-23T02:13:09.801Z,24.00
2018-12-23T02:15:37.487Z,18.73
2018-12-23T02:18:05.068Z,26.43
2018-12-23T02:20:32.630Z,19.17
2018-12-23T02:23:00.181Z,19.40
2018-12-23T02:25:27.745Z,17.53
2018-12-23T02:27:55.377Z,15.03
2018-12-23T02:30:22.927Z,16.97
2018-12-23T02:32:50.572Z,16.23
2018-12-23T02:35:18.251Z,17.47
2018-12-23T02:37:45.926Z,17.43
2018-12-23T02:40:13.471Z,17.37
2018-12-23T02:42:41.130Z,13.93
2018-12-23T02:45:08.903Z,20.93
2018-12-23T02:47:36.429Z,18.33
2018-12-23T02:50:05.010Z,17.90
2018-12-23T02:52:32.630Z,16.53
2018-12-23T02:55:00.236Z,16.40
2018-12-23T02:57:27.881Z,17.03
2018-12-23T02:59:55.417Z,21.80
2018-12-23T03:02:28.483Z,18.20
2018-12-23T03:04:56.081Z,17.73
2018-12-23T03:07:23.746Z,19.10
2018-12-23T03:09:51.307Z,13.40
2018-12-23T03:12:19.513Z,16.13
2018-12-23T03:14:48.122Z,19.43
2018-12-23T03:17:15.717Z,18.80
2018-12-23T03:19:43.233Z,17.40
2018-12-23T03:22:10.757Z,19.67
2018-12-23T03:24:38.269Z,17.90
2018-12-23T03:27:05.942Z,17.30
2018-12-23T03:29:33.477Z,18.70
2018-12-23T03:32:01.001Z,24.13
2018-12-23T03:34:28.566Z,17.07
2018-12-23T03:36:56.269Z,18.57
2018-12-23T03:39:23.887Z,22.23
2018-12-23T03:41:51.438Z,22.47
2018-12-23T03:44:18.922Z,21.50
2018-12-23T03:46:46.421Z,25.87
2018-12-23T03:49:14.070Z,16.90
2018-12-23T03:51:41.646Z,17.63
2018-12-23T03:54:09.169Z,19.17
2018-12-23T03:56:36.815Z,23.90
2018-12-23T03:59:04.677Z,17.70
2018-12-23T04:01:32.260Z,22.37
2018-12-23T04:03:59.752Z,14.90
2018-12-23T04:06:27.269Z,19.27
2018-12-23T04:08:54.821Z,20.17
2018-12-23T04:11:22.338Z,20.92
2018-12-23T04:13:49.957Z,19.90
2018-12-23T04:16:17.598Z,19.10
2018-12-23T04:18:45.206Z,24.53
2018-12-23T04:21:12.744Z,18.40
2018-12-23T04:23:40.629Z,19.97
2018-12-23T04:26:08.149Z,16.47
2018-12-23T04:28:35.660Z,16.20
2018-12-23T04:31:03.250Z,21.43
2018-12-23T04:33:30.779Z,16.63
2018-12-23T04:35:58.423Z,23.07
2018-12-23T04:38:26.421Z,15.00
2018-12-23T04:40:54.343Z,18.47
2018-12-23T04:43:21.918Z,17.10
2018-12-23T04:45:49.471Z,19.23
2018-12-23T04:48:17.181Z,17.50
2018-12-23T04:50:44.722Z,16.53
2018-12-23T04:53:12.246Z,23.67
2018-12-23T04:55:39.790Z,18.47
2018-12-23T04:58:07.332Z,14.60
2018-12-23T05:00:34.858Z,13.17
2018-12-23T05:03:02.444Z,18.93
2018-12-23T05:05:29.914Z,18.50
2018-12-23T05:07:57.498Z,20.37
2018-12-23T05:10:25.359Z,18.27
2018-12-23T05:12:52.846Z,17.40
2018-12-23T05:15:20.427Z,12.63
2018-12-23T05:17:47.918Z,13.87
2018-12-23T05:20:15.423Z,12.30
2018-12-23T05:22:42.962Z,16.50
2018-12-23T05:25:10.474Z,14.23
2018-12-23T05:27:38.120Z,18.33
2018-12-23T05:30:05.631Z,19.50
2018-12-23T05:32:34.262Z,19.03
2018-12-23T05:35:01.904Z,13.43
2018-12-23T05:37:29.462Z,17.00
2018-12-23T05:39:57.178Z,14.83
2018-12-23T05:42:25.066Z,21.77
2018-12-23T05:44:52.656Z,18.27
2018-12-23T05:47:20.294Z,24.87
2018-12-23T05:49:47.823Z,15.57
2018-12-23T05:52:15.341Z,15.20
2018-12-23T05:54:42.832Z,20.43
2018-12-23T05:57:10.345Z,18.00
2018-12-23T05:59:37.953Z,20.93
2018-12-23T06:02:05.689Z,19.03
2018-12-23T06:04:33.134Z,19.20
2018-12-23T06:07:01.281Z,17.00
2018-12-23T06:09:29.058Z,19.87
2018-12-23T06:11:56.642Z,17.83
2018-12-23T06:14:25.303Z,20.88
2018-12-23T06:16:53.430Z,26.97
2018-12-23T06:19:20.970Z,22.17
2018-12-23T06:21:48.651Z,18.43
2018-12-23T06:24:16.369Z,15.20
2018-12-23T06:26:43.823Z,16.60
2018-12-23T06:29:11.326Z,17.43
2018-12-23T06:31:38.801Z,18.10
2018-12-23T06:34:06.346Z,14.30
2018-12-23T06:36:33.850Z,19.50
2018-12-23T06:39:01.378Z,15.20
2018-12-23T06:41:30.198Z,23.73
2018-12-23T06:43:57.794Z,20.03
2018-12-23T06:46:25.548Z,19.17
2018-12-23T06:48:53.065Z,17.77
2018-12-23T06:51:20.670Z,16.17
2018-12-23T06:53:48.337Z,22.17
2018-12-23T06:56:15.853Z,18.00
2018-12-23T06:58:43.390Z,16.20
2018-12-23T07:01:10.919Z,17.10
2018-12-23T07:03:38.461Z,14.90
2018-12-23T07:06:06.069Z,18.93
2018-12-23T07:08:33.663Z,15.83
2018-12-23T07:11:01.135Z,19.20
2018-12-23T07:13:29.045Z,15.40
2018-12-23T07:15:56.669Z,24.10
2018-12-23T07:18:24.286Z,18.10
2018-12-23T07:20:51.838Z,22.03
2018-12-23T07:23:19.326Z,21.17
2018-12-23T07:25:46.805Z,17.23
2018-12-23T07:28:14.343Z,20.27
2018-12-23T07:30:41.882Z,22.70
2018-12-23T07:33:09.474Z,20.20
2018-12-23T07:35:37.040Z,17.80
2018-12-23T07:38:05.173Z,22.10
2018-12-23T07:40:32.898Z,17.07
2018-12-23T07:43:00.381Z,22.87
2018-12-23T07:45:27.869Z,19.97
2018-12-23T07:47:55.446Z,23.67
2018-12-23T07:50:23.122Z,25.27
2018-12-23T07:52:50.613Z,21.80
2018-12-23T07:55:18.559Z,17.40
2018-12-23T07:57:46.053Z,20.70
2018-12-23T08:00:13.893Z,29.17
2018-12-23T08:02:41.419Z,20.53
2018-12-23T08:05:09.029Z,27.27
2018-12-23T08:07:36.601Z,25.77
2018-12-23T08:10:04.557Z,19.03
2018-12-23T08:12:32.199Z,20.33
2018-12-23T08:14:59.937Z,19.10
2018-12-23T08:17:27.450Z,19.33
2018-12-23T08:19:55.030Z,22.13
2018-12-23T08:22:22.653Z,16.53
2018-12-23T08:24:50.201Z,19.43
2018-12-23T08:27:17.794Z,20.23
2018-12-23T08:29:45.336Z,15.57
2018-12-23T08:32:12.894Z,19.10
2018-12-23T08:34:40.546Z,22.27
2018-12-23T08:37:08.360Z,20.67
2018-12-23T08:39:35.899Z,22.23
2018-12-23T08:42:03.748Z,19.80
2018-12-23T08:44:31.252Z,19.57
2018-12-23T08:46:59.086Z,15.13
2018-12-23T08:49:26.756Z,25.70
2018-12-23T08:51:54.791Z,14.27
2018-12-23T08:54:22.366Z,25.17
2018-12-23T08:56:50.209Z,17.03
2018-12-23T08:59:18.114Z,14.10
2018-12-23T09:01:45.824Z,18.73
2018-12-23T09:04:13.681Z,18.93
2018-12-23T09:06:41.804Z,19.03
2018-12-23T09:09:26.394Z,16.47
2018-12-23T09:11:53.959Z,21.43
2018-12-23T09:14:22.146Z,22.40
2018-12-23T09:16:50.662Z,23.33
2018-12-23T09:19:18.679Z,20.60
2018-12-23T09:21:46.609Z,22.97
2018-12-23T09:24:14.505Z,25.07
2018-12-23T09:26:42.020Z,16.50
2018-12-23T09:29:09.652Z,21.50
2018-12-23T09:31:37.551Z,25.93
2018-12-23T09:34:05.098Z,27.50
2018-12-23T09:36:32.716Z,24.67
2018-12-23T09:39:00.538Z,20.00
2018-12-23T09:41:28.121Z,31.97
2018-12-23T09:43:56.209Z,28.73
2018-12-23T09:46:23.725Z,26.80
2018-12-23T09:48:51.507Z,22.90
2018-12-23T09:51:19.294Z,27.60
2018-12-23T09:53:47.010Z,27.87
2018-12-23T09:56:14.574Z,25.50
2018-12-23T09:58:42.798Z,25.57
2018-12-23T10:01:10.438Z,28.43
2018-12-23T10:03:38.175Z,28.80
2018-12-23T10:06:06.491Z,28.63
2018-12-23T10:08:34.171Z,29.90
2018-12-23T10:11:01.841Z,27.43
2018-12-23T10:13:29.465Z,25.40
2018-12-23T10:15:57.052Z,27.07
2018-12-23T10:18:24.577Z,27.60
2018-12-23T10:20:52.063Z,23.80
2018-12-23T10:23:19.612Z,24.63
2018-12-23T10:25:47.495Z,28.30
2018-12-23T10:28:15.076Z,30.23
2018-12-23T10:30:42.600Z,25.13
2018-12-23T10:33:10.230Z,28.33
2018-12-23T10:35:38.331Z,31.97
2018-12-23T10:38:05.878Z,28.60
2018-12-23T10:40:33.341Z,31.87
2018-12-23T10:43:01.379Z,32.87
2018-12-23T10:45:29.206Z,30.57
2018-12-23T10:47:56.740Z,23.17
2018-12-23T10:50:24.542Z,24.83
2018-12-23T10:52:52.177Z,26.73
2018-12-23T10:55:19.735Z,32.80
2018-12-23T10:57:47.307Z,31.57
2018-12-23T11:00:14.801Z,26.47
2018-12-23T11:02:42.473Z,23.17
2018-12-23T11:05:10.401Z,25.40
2018-12-23T11:07:37.942Z,28.00
2018-12-23T11:10:05.989Z,25.77
2018-12-23T11:12:33.610Z,29.00
2018-12-23T11:15:01.145Z,24.83
2018-12-23T11:17:28.785Z,20.40
2018-12-23T11:19:56.403Z,29.40
2018-12-23T11:22:23.927Z,25.40
2018-12-23T11:24:51.503Z,27.10
2018-12-23T11:27:19.441Z,24.77
2018-12-23T11:29:47.058Z,24.90
2018-12-23T11:32:14.587Z,25.47
2018-12-23T11:34:42.252Z,22.70
2018-12-23T11:37:09.743Z,28.90
2018-12-23T11:39:37.253Z,26.10
2018-12-23T11:42:04.833Z,25.70
2018-12-23T11:44:32.748Z,26.03
2018-12-23T11:47:00.658Z,28.73
2018-12-23T11:49:28.178Z,24.40
2018-12-23T11:51:55.734Z,23.37
2018-12-23T11:54:23.379Z,24.10
2018-12-23T11:56:51.008Z,29.03
2018-12-23T11:59:18.477Z,32.07
2018-12-23T12:01:46.002Z,24.57
2018-12-23T12:04:13.742Z,24.60
2018-12-23T12:06:41.285Z,27.17
2018-12-23T12:09:08.797Z,22.40
2018-12-23T12:11:36.467Z,20.33
2018-12-23T12:14:03.988Z,22.93
2018-12-23T12:16:34.648Z,30.70
2018-12-23T12:19:02.153Z,27.40
2018-12-23T12:21:29.589Z,24.63
2018-12-23T12:23:57.144Z,19.93
2018-12-23T12:26:25.774Z,28.67
2018-12-23T12:28:53.314Z,23.23
2018-12-23T12:31:20.826Z,22.67
2018-12-23T12:33:48.430Z,17.30
2018-12-23T12:36:16.113Z,15.87
2018-12-23T12:38:51.966Z,12.70
2018-12-23T12:41:13.414Z,13.33
2018-12-23T12:43:42.200Z,15.80
2018-12-23T12:46:09.673Z,13.00
2018-12-23T12:48:37.345Z,10.50
2018-12-23T12:51:04.848Z,15.13
2018-12-23T12:53:33.288Z,11.40
2018-12-23T12:56:02.616Z,14.10
2018-12-23T12:58:30.520Z,11.20
2018-12-23T13:00:58.093Z,10.47
2018-12-23T13:03:25.549Z,11.40
2018-12-23T13:05:55.019Z,13.67
2018-12-23T13:08:22.537Z,10.17
2018-12-23T13:10:50.094Z,14.93
2018-12-23T13:13:17.926Z,12.07
2018-12-23T13:15:45.660Z,13.20
2018-12-23T13:18:13.366Z,14.30
2018-12-23T13:20:40.942Z,14.47
2018-12-23T13:23:08.397Z,12.00
2018-12-23T13:25:36.082Z,14.43
2018-12-23T13:28:03.807Z,12.60
2018-12-23T13:30:31.707Z,11.17
2018-12-23T13:32:59.317Z,14.25
2018-12-23T13:35:27.012Z,15.83
2018-12-23T13:37:54.604Z,13.70
2018-12-23T13:40:37.757Z,14.33
2018-12-23T13:43:13.757Z,12.83
2018-12-23T13:48:27.190Z,13.03
2018-12-23T13:51:04.612Z,13.70
2018-12-23T13:53:42.476Z,13.57
2018-12-23T13:56:23.485Z,14.43
2018-12-23T13:59:03.752Z,12.70
2018-12-23T14:01:42.853Z,17.60
2018-12-23T14:04:21.801Z,16.05
2018-12-23T14:07:00.810Z,12.27
2018-12-23T14:10:48.186Z,15.93
2018-12-23T14:13:15.662Z,13.80
2018-12-23T14:15:43.177Z,16.37
2018-12-23T14:18:10.774Z,13.20
2018-12-23T14:20:38.360Z,13.43
2018-12-23T14:23:06.117Z,15.60
2018-12-23T14:25:33.676Z,14.53
2018-12-23T14:28:01.298Z,16.53
2018-12-23T14:30:29.109Z,16.80
2018-12-23T14:32:56.798Z,13.55
2018-12-23T14:35:24.433Z,17.57
2018-12-23T14:37:52.270Z,14.17
2018-12-23T14:40:19.887Z,12.53
2018-12-23T14:42:47.721Z,13.27
2018-12-23T14:45:15.353Z,14.67
2018-12-23T14:47:43.130Z,16.23
2018-12-23T14:50:10.825Z,11.30
2018-12-23T14:52:38.430Z,17.37
2018-12-23T14:55:05.982Z,18.27
2018-12-23T14:57:33.519Z,15.13
2018-12-23T15:00:01.118Z,13.20
2018-12-23T15:02:29.452Z,15.97
2018-12-23T15:04:57.029Z,16.07
2018-12-23T15:07:24.542Z,18.87
2018-12-23T15:09:52.044Z,15.80
2018-12-23T15:12:19.811Z,14.87
2018-12-23T15:14:47.329Z,13.30
2018-12-23T15:17:14.850Z,13.73
2018-12-23T15:19:42.694Z,14.73
2018-12-23T15:22:10.288Z,14.60
2018-12-23T15:24:37.810Z,16.20
2018-12-23T15:27:05.285Z,12.90
2018-12-23T15:29:33.114Z,15.07
2018-12-23T15:32:00.690Z,17.60
2018-12-23T15:34:28.209Z,13.13
2018-12-23T15:36:56.175Z,13.87
2018-12-23T15:39:23.746Z,13.23
2018-12-23T15:41:51.379Z,14.97
2018-12-23T15:44:18.997Z,14.07
2018-12-23T15:46:46.491Z,14.53
2018-12-23T15:49:13.994Z,17.00
2018-12-23T15:51:41.514Z,13.30
2018-12-23T15:54:09.124Z,15.20
2018-12-23T15:56:37.122Z,16.30
2018-12-23T15:59:04.741Z,14.73
2018-12-23T16:01:32.313Z,15.28
2018-12-23T16:03:59.903Z,15.73
2018-12-23T16:06:27.485Z,17.07
2018-12-23T16:08:55.204Z,15.23
2018-12-23T16:11:22.830Z,18.43
2018-12-23T16:13:50.353Z,17.13
2018-12-23T16:16:17.963Z,18.13
2018-12-23T16:18:45.462Z,16.30
2018-12-23T16:21:12.963Z,17.67
2018-12-23T16:23:40.587Z,17.53
2018-12-23T16:26:08.188Z,21.20
2018-12-23T16:28:37.088Z,21.77
2018-12-23T16:31:04.786Z,15.97
2018-12-23T16:34:13.668Z,13.73
2018-12-23T16:36:47.646Z,14.63
2018-12-23T16:39:15.172Z,16.43
2018-12-23T16:41:42.895Z,16.75
2018-12-23T16:44:10.405Z,14.20
2018-12-23T16:46:37.969Z,18.83
2018-12-23T16:49:05.604Z,19.35
2018-12-23T16:51:34.237Z,18.23
2018-12-23T16:54:01.785Z,15.30
2018-12-23T16:56:29.715Z,17.53
2018-12-23T16:58:57.256Z,16.07
2018-12-23T17:01:24.734Z,18.27
2018-12-23T17:03:52.355Z,20.37
2018-12-23T17:06:19.947Z,14.87
2018-12-23T17:08:50.565Z,13.63
2018-12-23T17:11:18.077Z,15.77
2018-12-23T17:13:46.701Z,15.73
2018-12-23T17:16:14.208Z,15.70
2018-12-23T17:18:41.725Z,20.13
2018-12-23T17:21:09.225Z,18.40
2018-12-23T17:23:36.988Z,15.57
2018-12-23T17:26:04.534Z,16.10
2018-12-23T17:28:32.225Z,22.07
2018-12-23T17:30:59.938Z,21.07
2018-12-23T17:33:27.473Z,25.17
2018-12-23T17:35:54.959Z,28.40
2018-12-23T17:38:22.502Z,30.43
2018-12-23T17:40:50.037Z,29.97
2018-12-23T17:43:17.646Z,23.83
2018-12-23T17:45:45.484Z,29.67
2018-12-23T17:48:13.367Z,24.40
2018-12-23T17:50:40.966Z,22.53
2018-12-23T17:53:08.609Z,22.97
2018-12-23T17:55:36.626Z,21.67
2018-12-23T17:58:04.176Z,21.20
2018-12-23T18:00:31.775Z,24.47
2018-12-23T18:02:59.290Z,19.73
2018-12-23T18:05:26.851Z,21.97
2018-12-23T18:07:54.523Z,20.83
2018-12-23T18:10:25.104Z,20.43
2018-12-23T18:12:51.730Z,20.00
2018-12-23T18:15:19.315Z,21.23
2018-12-23T18:17:46.961Z,19.80
2018-12-23T18:20:51.107Z,21.17
2018-12-23T18:23:31.804Z,21.68
2018-12-23T18:25:59.524Z,18.30
2018-12-23T18:28:27.165Z,18.20
2018-12-23T18:30:54.598Z,23.70
2018-12-23T18:33:22.255Z,18.70
2018-12-23T18:35:49.794Z,22.20
2018-12-23T18:38:17.095Z,19.90
2018-12-23T18:40:44.501Z,21.80
2018-12-23T18:43:11.846Z,17.90
2018-12-23T18:45:39.360Z,19.23
2018-12-23T18:48:06.899Z,17.27
2018-12-23T18:50:34.478Z,20.33
2018-12-23T18:53:01.832Z,18.13
2018-12-23T18:55:33.615Z,16.30
2018-12-23T18:58:00.986Z,16.30
2018-12-23T19:00:28.284Z,16.23
2018-12-23T19:02:58.710Z,17.33
2018-12-23T19:05:26.369Z,18.67
2018-12-23T19:07:57.966Z,19.20
2018-12-23T19:11:04.241Z,16.03
2018-12-23T19:14:35.030Z,15.50
2018-12-23T19:17:40.620Z,19.05
2018-12-23T19:20:46.799Z,18.60
2018-12-23T19:23:49.856Z,17.83
2018-12-23T19:27:02.170Z,18.27
2018-12-23T19:29:59.180Z,16.93
2018-12-23T19:32:54.027Z,14.33
2018-12-23T19:36:09.541Z,19.67
2018-12-23T19:39:01.674Z,19.83
2018-12-23T19:42:15.114Z,24.73
2018-12-23T19:45:27.297Z,21.80
2018-12-23T19:48:58.207Z,17.87
2018-12-23T19:52:16.428Z,19.60
2018-12-23T19:54:56.676Z,20.90
2018-12-23T19:57:36.793Z,17.57
2018-12-23T20:00:31.954Z,16.60
2018-12-23T20:03:28.644Z,16.70
2018-12-23T20:06:38.693Z,15.27
2018-12-23T20:09:32.127Z,13.57
2018-12-23T20:12:57.453Z,16.97
2018-12-23T20:16:15.097Z,17.98
2018-12-23T20:19:18.754Z,15.80
2018-12-23T20:22:37.838Z,15.88
2018-12-23T20:25:23.578Z,14.07
2018-12-23T20:28:23.263Z,15.10
2018-12-23T20:31:37.517Z,12.10
2018-12-23T20:34:59.282Z,13.80
2018-12-23T20:37:55.448Z,14.27
2018-12-23T20:40:49.559Z,11.33
2018-12-23T20:43:43.958Z,11.20
2018-12-23T20:46:47.323Z,12.27
2018-12-23T20:49:40.969Z,11.47
2018-12-23T20:52:52.249Z,10.70
2018-12-23T20:55:59.619Z,11.57
2018-12-23T20:59:08.721Z,10.23
2018-12-23T21:02:29.574Z,12.30
2018-12-23T21:05:18.615Z,8.87
2018-12-23T21:08:33.350Z,11.13
2018-12-23T21:11:44.671Z,10.90
2018-12-23T21:14:55.646Z,13.25
2018-12-23T21:18:07.518Z,12.60
2018-12-23T21:21:04.943Z,15.18
2018-12-23T21:24:09.995Z,11.97
2018-12-23T21:27:17.307Z,13.00
2018-12-23T21:30:34.531Z,10.40
2018-12-23T21:33:57.857Z,14.07
2018-12-23T21:36:45.749Z,15.20
2018-12-23T21:39:38.851Z,13.13
2018-12-23T21:42:24.655Z,10.57
2018-12-23T21:45:37.924Z,13.47
2018-12-23T21:48:52.760Z,13.93
2018-12-23T21:51:50.449Z,14.90
2018-12-23T21:54:28.994Z,13.90
2018-12-23T21:57:47.225Z,16.23
2018-12-23T22:00:47.759Z,14.43
2018-12-23T22:03:55.903Z,15.37
2018-12-23T22:07:03.802Z,14.33
2018-12-23T22:10:02.315Z,14.00
2018-12-23T22:13:15.900Z,19.07
2018-12-23T22:15:43.493Z,20.63
2018-12-23T22:18:11.091Z,16.40
2018-12-23T22:20:38.506Z,15.50
2018-12-23T22:23:05.866Z,15.77
2018-12-23T22:25:33.394Z,18.57
2018-12-23T22:28:00.793Z,15.70
2018-12-23T22:30:28.241Z,15.00
2018-12-23T22:32:55.758Z,16.70
2018-12-23T22:35:23.157Z,17.13
2018-12-23T22:37:50.877Z,15.37
2018-12-23T22:40:18.335Z,17.13
2018-12-23T22:42:45.887Z,17.17
2018-12-23T22:45:13.526Z,15.90
2018-12-23T22:47:40.946Z,15.07
2018-12-23T22:50:08.569Z,18.33
2018-12-23T22:52:35.877Z,17.87
2018-12-23T22:55:03.147Z,14.13
2018-12-23T22:57:30.615Z,17.57
2018-12-23T22:59:58.140Z,18.43
2018-12-23T23:02:25.518Z,18.00
2018-12-23T23:04:53.967Z,12.57
2018-12-23T23:07:22.497Z,15.60
2018-12-23T23:09:49.771Z,21.03
2018-12-23T23:12:17.195Z,18.93
2018-12-23T23:14:44.597Z,19.30
2018-12-23T23:17:12.104Z,16.10
2018-12-23T23:19:39.445Z,15.10
2018-12-23T23:22:06.789Z,13.40
2018-12-23T23:24:46.473Z,14.00
2018-12-23T23:27:13.950Z,13.37
2018-12-23T23:29:41.440Z,15.53
2018-12-23T23:32:08.932Z,16.57
2018-12-23T23:34:36.377Z,18.87
2018-12-23T23:37:03.775Z,10.80
2018-12-23T23:39:31.214Z,12.90
2018-12-23T23:41:58.819Z,13.23
2018-12-23T23:44:26.314Z,14.90
2018-12-23T23:46:53.764Z,11.83
2018-12-23T23:49:21.172Z,11.73
2018-12-23T23:51:48.730Z,12.33
2018-12-23T23:54:16.130Z,13.67
2018-12-23T23:56:43.606Z,10.40
2018-12-23T23:59:10.933Z,8.13
